createdAt,value
2022-11-24T00:01:40.486Z,102535.20
2022-11-24T00:04:02.451Z,102532.51
2022-11-24T00:06:17.724Z,102537.70
2022-11-24T00:08:30.998Z,102539.86
2022-11-24T00:10:44.200Z,102539.86
2022-11-24T00:12:57.384Z,102533.85
2022-11-24T00:15:11.333Z,102538.29
2022-11-24T00:17:24.578Z,102545.06
2022-11-24T00:19:37.963Z,102551.06
2022-11-24T00:21:51.201Z,102549.66
2022-11-24T00:24:04.738Z,102542.14
2022-11-24T00:26:19.089Z,102537.35
2022-11-24T00:28:32.365Z,102539.34
2022-11-24T00:30:45.732Z,102536.56
2022-11-24T00:32:59.040Z,102534.32
2022-11-24T00:35:13.144Z,102529.56
2022-11-24T00:37:26.413Z,102527.81
2022-11-24T00:39:39.687Z,102528.40
2022-11-24T00:41:53.340Z,102524.69
2022-11-24T00:44:07.110Z,102525.27
2022-11-24T00:46:20.924Z,102531.71
2022-11-24T00:48:34.617Z,102539.94
2022-11-24T00:50:47.958Z,102542.12
2022-11-24T00:53:01.255Z,102542.66
2022-11-24T00:55:14.892Z,102540.39
2022-11-24T00:57:28.124Z,102541.15
2022-11-24T00:59:41.570Z,102545.38
2022-11-24T01:01:54.904Z,102543.46
2022-11-24T01:04:08.467Z,102543.58
2022-11-24T01:06:23.555Z,102545.26
2022-11-24T01:08:36.860Z,102543.02
2022-11-24T01:10:50.227Z,102545.89
2022-11-24T01:13:03.542Z,102544.35
2022-11-24T01:15:20.882Z,102547.05
2022-11-24T01:17:34.125Z,102544.05
2022-11-24T01:19:48.334Z,102540.50
2022-11-24T01:22:01.781Z,102536.43
2022-11-24T01:24:15.914Z,102535.39
2022-11-24T01:26:29.555Z,102541.98
2022-11-24T01:28:47.012Z,102539.33
2022-11-24T01:31:06.241Z,102535.30
2022-11-24T01:33:19.869Z,102532.66
2022-11-24T01:35:33.094Z,102527.68
2022-11-24T01:37:46.520Z,102522.63
2022-11-24T01:39:59.882Z,102525.23
2022-11-24T01:42:13.839Z,102526.13
2022-11-24T01:44:31.800Z,102523.14
2022-11-24T01:46:49.495Z,102516.38
2022-11-24T01:49:15.177Z,102518.98
2022-11-24T01:51:32.210Z,102519.34
2022-11-24T01:53:48.486Z,102520.70
2022-11-24T01:56:02.544Z,102521.51
2022-11-24T01:58:19.126Z,102518.21
2022-11-24T02:00:32.758Z,102520.97
2022-11-24T02:02:47.784Z,102524.59
2022-11-24T02:05:04.121Z,102519.02
2022-11-24T02:07:18.747Z,102516.55
2022-11-24T02:09:36.943Z,102515.64
2022-11-24T02:11:53.461Z,102511.73
2022-11-24T02:14:07.618Z,102512.02
2022-11-24T02:16:21.210Z,102509.42
2022-11-24T02:18:34.548Z,102512.09
2022-11-24T02:20:47.994Z,102507.23
2022-11-24T02:23:07.227Z,102501.25
2022-11-24T02:25:27.250Z,102498.84
2022-11-24T02:27:40.561Z,102498.55
2022-11-24T02:29:54.093Z,102511.80
2022-11-24T02:32:10.849Z,102521.48
2022-11-24T02:34:24.584Z,102520.40
2022-11-24T02:36:38.216Z,102515.05
2022-11-24T02:38:51.546Z,102511.07
2022-11-24T02:41:09.166Z,102510.13
2022-11-24T02:43:26.694Z,102510.44
2022-11-24T02:45:39.947Z,102513.05
2022-11-24T02:47:53.328Z,102510.17
2022-11-24T02:50:06.818Z,102503.08
2022-11-24T02:52:20.521Z,102495.06
2022-11-24T02:54:34.086Z,102488.95
2022-11-24T02:56:49.869Z,102492.39
2022-11-24T02:59:03.330Z,102497.25
2022-11-24T03:01:16.798Z,102504.09
2022-11-24T03:03:30.591Z,102505.45
2022-11-24T03:05:44.075Z,102503.96
2022-11-24T03:07:57.574Z,102501.04
2022-11-24T03:10:11.922Z,102503.58
2022-11-24T03:12:25.288Z,102502.98
2022-11-24T03:14:38.701Z,102501.32
2022-11-24T03:16:52.588Z,102501.25
2022-11-24T03:19:05.972Z,102496.55
2022-11-24T03:21:19.358Z,102496.09
2022-11-24T03:23:32.832Z,102492.60
2022-11-24T03:25:46.301Z,102488.59
2022-11-24T03:28:00.178Z,102479.46
2022-11-24T03:30:15.406Z,102478.48
2022-11-24T03:32:28.889Z,102476.95
2022-11-24T03:34:42.336Z,102477.73
2022-11-24T03:36:55.838Z,102474.83
2022-11-24T03:39:09.382Z,102472.45
2022-11-24T03:41:23.007Z,102472.17
2022-11-24T03:43:41.957Z,102473.71
2022-11-24T03:45:57.951Z,102474.92
2022-11-24T03:48:12.320Z,102481.56
2022-11-24T03:50:25.768Z,102482.02
2022-11-24T03:52:39.077Z,102480.50
2022-11-24T03:54:52.371Z,102477.73
2022-11-24T03:57:05.678Z,102476.23
2022-11-24T03:59:19.274Z,102477.92
2022-11-24T04:01:33.168Z,102479.59
2022-11-24T04:03:46.568Z,102475.05
2022-11-24T04:05:59.960Z,102470.73
2022-11-24T04:08:13.330Z,102473.46
2022-11-24T04:10:26.795Z,102469.14
2022-11-24T04:12:49.256Z,102469.20
2022-11-24T04:15:02.557Z,102471.39
2022-11-24T04:17:15.851Z,102468.07
2022-11-24T04:19:29.063Z,102471.30
2022-11-24T04:21:42.465Z,102474.70
2022-11-24T04:23:55.777Z,102479.50
2022-11-24T04:26:09.342Z,102477.77
2022-11-24T04:28:22.611Z,102477.59
2022-11-24T04:30:37.434Z,102474.78
2022-11-24T04:32:51.222Z,102472.34
2022-11-24T04:35:04.562Z,102470.46
2022-11-24T04:37:17.860Z,102466.30
2022-11-24T04:39:31.162Z,102461.98
2022-11-24T04:41:44.465Z,102460.78
2022-11-24T04:43:57.853Z,102464.00
2022-11-24T04:46:13.856Z,102465.23
2022-11-24T04:48:27.123Z,102464.53
2022-11-24T04:50:41.036Z,102466.52
2022-11-24T04:52:54.254Z,102465.65
2022-11-24T04:55:07.608Z,102463.77
2022-11-24T04:57:22.771Z,102464.84
2022-11-24T04:59:37.176Z,102461.49
2022-11-24T05:01:50.735Z,102460.48
2022-11-24T05:04:04.439Z,102459.85
2022-11-24T05:06:17.722Z,102460.27
2022-11-24T05:08:30.952Z,102464.23
2022-11-24T05:10:44.365Z,102460.41
2022-11-24T05:13:02.486Z,102465.38
2022-11-24T05:15:16.816Z,102457.69
2022-11-24T05:17:31.849Z,102459.69
2022-11-24T05:19:45.192Z,102463.23
2022-11-24T05:21:58.607Z,102461.83
2022-11-24T05:24:13.693Z,102466.07
2022-11-24T05:26:27.272Z,102461.66
2022-11-24T05:28:40.756Z,102459.71
2022-11-24T05:30:54.248Z,102464.84
2022-11-24T05:33:11.726Z,102466.45
2022-11-24T05:35:25.567Z,102465.94
2022-11-24T05:37:39.410Z,102466.20
2022-11-24T05:39:52.828Z,102463.61
2022-11-24T05:42:28.053Z,102462.14
2022-11-24T05:44:41.432Z,102454.30
2022-11-24T05:46:54.834Z,102457.02
2022-11-24T05:49:08.176Z,102457.12
2022-11-24T05:51:21.431Z,102456.83
2022-11-24T05:53:34.783Z,102462.16
2022-11-24T05:55:48.131Z,102463.30
2022-11-24T05:58:06.623Z,102464.39
2022-11-24T06:00:22.509Z,102470.76
2022-11-24T06:02:38.320Z,102474.29
2022-11-24T06:04:52.245Z,102474.31
2022-11-24T06:07:05.703Z,102475.58
2022-11-24T06:09:19.311Z,102477.36
2022-11-24T06:11:32.811Z,102478.10
2022-11-24T06:13:48.315Z,102473.00
2022-11-24T06:16:05.176Z,102477.61
2022-11-24T06:18:18.513Z,102483.63
2022-11-24T06:20:33.095Z,102483.48
2022-11-24T06:22:46.795Z,102487.23
2022-11-24T06:25:00.248Z,102486.06
2022-11-24T06:27:14.313Z,102481.36
2022-11-24T06:29:27.753Z,102483.30
2022-11-24T06:31:41.224Z,102474.52
2022-11-24T06:33:54.868Z,102474.00
2022-11-24T06:36:11.132Z,102473.13
2022-11-24T06:38:24.732Z,102465.71
2022-11-24T06:40:38.212Z,102466.21
2022-11-24T06:42:56.015Z,102462.83
2022-11-24T06:45:10.259Z,102469.52
2022-11-24T06:47:23.812Z,102477.05
2022-11-24T06:49:37.532Z,102477.88
2022-11-24T06:51:50.972Z,102479.59
2022-11-24T06:54:05.018Z,102476.52
2022-11-24T06:56:22.265Z,102470.88
2022-11-24T06:58:35.670Z,102467.88
2022-11-24T07:00:50.030Z,102467.70
2022-11-24T07:03:03.519Z,102474.77
2022-11-24T07:05:17.133Z,102475.02
2022-11-24T07:07:30.774Z,102477.02
2022-11-24T07:09:44.108Z,102481.61
2022-11-24T07:11:58.253Z,102480.52
2022-11-24T07:14:11.903Z,102472.71
2022-11-24T07:16:26.861Z,102470.92
2022-11-24T07:18:41.330Z,102471.05
2022-11-24T07:20:54.695Z,102473.80
2022-11-24T07:23:08.198Z,102479.92
2022-11-24T07:25:21.964Z,102480.70
2022-11-24T07:27:35.590Z,102478.36
2022-11-24T07:29:48.977Z,102471.73
2022-11-24T07:32:05.506Z,102467.42
2022-11-24T07:34:19.149Z,102471.42
2022-11-24T07:36:32.476Z,102472.95
2022-11-24T07:38:45.662Z,102471.39
2022-11-24T07:41:02.398Z,102472.70
2022-11-24T07:43:19.989Z,102472.09
2022-11-24T07:45:34.512Z,102472.70
2022-11-24T07:47:48.096Z,102469.23
2022-11-24T07:50:01.446Z,102473.17
2022-11-24T07:52:14.929Z,102473.14
2022-11-24T07:54:28.179Z,102474.65
2022-11-24T07:56:41.563Z,102481.83
2022-11-24T07:58:55.081Z,102487.36
2022-11-24T08:01:15.666Z,102489.08
2022-11-24T08:03:29.505Z,102483.45
2022-11-24T08:06:07.931Z,102483.45
2022-11-24T08:08:16.113Z,102483.55
2022-11-24T08:10:29.459Z,102482.96
2022-11-24T08:12:43.846Z,102481.65
2022-11-24T08:14:57.786Z,102474.86
2022-11-24T08:17:11.077Z,102478.50
2022-11-24T08:19:25.068Z,102480.18
2022-11-24T08:21:38.395Z,102485.48
2022-11-24T08:23:51.664Z,102489.48
2022-11-24T08:26:06.787Z,102486.64
2022-11-24T08:28:20.001Z,102476.95
2022-11-24T08:30:33.726Z,102479.33
2022-11-24T08:32:46.872Z,102479.23
2022-11-24T08:35:13.492Z,102478.25
2022-11-24T08:37:28.907Z,102472.52
2022-11-24T08:39:42.073Z,102468.16
2022-11-24T08:41:55.499Z,102466.52
2022-11-24T08:44:09.612Z,102461.31
2022-11-24T08:46:23.370Z,102460.92
2022-11-24T08:48:37.178Z,102468.63
2022-11-24T08:50:50.574Z,102470.36
2022-11-24T08:53:03.901Z,102468.95
2022-11-24T08:55:17.557Z,102469.52
2022-11-24T08:57:30.787Z,102471.37
2022-11-24T08:59:44.145Z,102466.57
2022-11-24T09:01:57.442Z,102468.44
2022-11-24T09:04:11.033Z,102474.33
2022-11-24T09:06:26.928Z,102477.01
2022-11-24T09:08:40.446Z,102469.64
2022-11-24T09:10:53.806Z,102466.55
2022-11-24T09:13:07.377Z,102469.65
2022-11-24T09:15:21.666Z,102491.03
2022-11-24T09:17:34.983Z,102500.23
2022-11-24T09:19:48.283Z,102496.56
2022-11-24T09:22:01.571Z,102501.94
2022-11-24T09:24:17.789Z,102506.13
2022-11-24T09:26:32.769Z,102505.58
2022-11-24T09:28:46.906Z,102506.68
2022-11-24T09:31:03.360Z,102504.67
2022-11-24T09:33:16.739Z,102490.21
2022-11-24T09:35:29.965Z,102495.30
2022-11-24T09:37:46.136Z,102495.49
2022-11-24T09:39:59.691Z,102487.23
2022-11-24T09:42:19.187Z,102480.20
2022-11-24T09:45:03.941Z,102471.20
2022-11-24T09:47:26.164Z,102468.83
2022-11-24T09:49:50.952Z,102470.30
2022-11-24T09:52:11.884Z,102474.77
2022-11-24T09:54:28.215Z,102476.59
2022-11-24T09:56:45.427Z,102479.27
2022-11-24T09:59:03.890Z,102472.59
2022-11-24T10:01:22.069Z,102466.77
2022-11-24T10:03:39.895Z,102466.00
2022-11-24T10:05:54.904Z,102469.27
2022-11-24T10:08:23.150Z,102465.29
2022-11-24T10:10:45.838Z,102464.05
2022-11-24T10:13:02.006Z,102461.58
2022-11-24T10:15:29.839Z,102460.41
2022-11-24T10:18:17.024Z,102461.23
2022-11-24T10:20:40.890Z,102462.76
2022-11-24T10:23:02.452Z,102465.66
2022-11-24T10:25:22.391Z,102466.44
2022-11-24T10:27:42.962Z,102467.03
2022-11-24T10:29:58.745Z,102470.95
2022-11-24T10:32:18.243Z,102476.14
2022-11-24T10:34:36.385Z,102478.61
2022-11-24T10:36:57.871Z,102479.49
2022-11-24T10:39:21.202Z,102487.20
2022-11-24T10:41:46.410Z,102491.74
2022-11-24T10:44:02.020Z,102492.62
2022-11-24T10:46:18.885Z,102493.30
2022-11-24T10:48:40.903Z,102496.47
2022-11-24T10:50:57.139Z,102494.00
2022-11-24T10:53:22.333Z,102492.59
2022-11-24T10:56:11.256Z,102490.28
2022-11-24T10:58:32.940Z,102490.21
2022-11-24T11:00:50.684Z,102489.81
2022-11-24T11:05:51.547Z,102485.70
2022-11-24T11:08:30.827Z,102479.55
2022-11-24T11:10:44.616Z,102477.61
2022-11-24T11:12:57.954Z,102473.73
2022-11-24T11:15:32.250Z,102472.77
2022-11-24T11:17:47.074Z,102472.31
2022-11-24T11:20:05.110Z,102473.77
2022-11-24T11:22:25.302Z,102473.15
2022-11-24T11:24:39.651Z,102468.48
2022-11-24T11:27:02.514Z,102472.53
2022-11-24T11:34:41.963Z,102475.73
2022-11-24T11:36:57.350Z,102479.37
2022-11-24T11:39:18.955Z,102470.52
2022-11-24T11:41:36.664Z,102464.86
2022-11-24T11:43:53.903Z,102465.89
2022-11-24T11:46:15.100Z,102466.56
2022-11-24T11:48:42.800Z,102469.84
2022-11-24T11:53:46.481Z,102467.77
2022-11-24T11:56:13.056Z,102470.50
2022-11-24T11:58:56.877Z,102467.09
2022-11-24T12:01:27.472Z,102462.25
2022-11-24T12:03:54.064Z,102457.19
2022-11-24T12:06:22.665Z,102454.20
2022-11-24T12:09:18.075Z,102456.79
2022-11-24T12:11:26.100Z,102450.39
2022-11-24T12:13:55.458Z,102453.50
2022-11-24T12:16:19.434Z,102452.02
2022-11-24T12:21:26.408Z,102451.74
2022-11-24T12:23:55.270Z,102453.46
2022-11-24T12:26:15.870Z,102451.84
2022-11-24T12:28:44.299Z,102449.21
2022-11-24T12:31:08.092Z,102449.41
2022-11-24T12:33:39.618Z,102451.56
2022-11-24T12:35:57.491Z,102454.55
2022-11-24T12:38:24.681Z,102450.58
2022-11-24T12:40:48.581Z,102449.77
2022-11-24T12:43:09.509Z,102449.39
2022-11-24T12:45:26.431Z,102446.35
2022-11-24T12:47:51.748Z,102442.58
2022-11-24T12:50:12.737Z,102442.31
2022-11-24T12:52:29.640Z,102442.40
2022-11-24T12:54:45.172Z,102439.97
2022-11-24T12:57:05.659Z,102440.19
2022-11-24T12:59:31.241Z,102440.96
2022-11-24T13:01:51.105Z,102444.40
2022-11-24T13:04:24.338Z,102442.02
2022-11-24T13:06:49.325Z,102445.70
2022-11-24T13:09:10.364Z,102443.78
2022-11-24T13:11:49.417Z,102436.92
2022-11-24T13:14:09.225Z,102431.31
2022-11-24T13:16:59.086Z,102430.66
2022-11-24T13:19:02.842Z,102425.42
2022-11-24T13:21:51.450Z,102426.13
2022-11-24T13:24:06.536Z,102422.64
2022-11-24T13:26:37.523Z,102424.20
2022-11-24T13:29:23.821Z,102423.52
2022-11-24T13:31:38.119Z,102421.08
2022-11-24T13:33:51.452Z,102419.52
2022-11-24T13:36:45.259Z,102416.92
2022-11-24T13:39:00.392Z,102422.44
2022-11-24T13:41:35.942Z,102424.77
2022-11-24T13:44:29.716Z,102423.60
2022-11-24T13:47:05.731Z,102423.30
2022-11-24T13:49:27.390Z,102426.52
2022-11-24T13:51:40.719Z,102428.70
2022-11-24T13:53:56.731Z,102427.34
2022-11-24T13:56:23.768Z,102432.48
2022-11-24T13:58:42.990Z,102430.55
2022-11-24T14:01:10.719Z,102431.08
2022-11-24T14:03:30.232Z,102429.89
2022-11-24T14:05:50.675Z,102426.59
2022-11-24T14:08:05.340Z,102421.86
2022-11-24T14:10:23.983Z,102422.95
2022-11-24T14:12:37.302Z,102425.08
2022-11-24T14:14:52.441Z,102423.16
2022-11-24T14:17:23.891Z,102419.66
2022-11-24T14:19:37.181Z,102420.71
2022-11-24T14:21:51.287Z,102419.70
2022-11-24T14:24:12.339Z,102418.52
2022-11-24T14:26:28.197Z,102417.14
2022-11-24T14:28:41.445Z,102420.67
2022-11-24T14:30:55.043Z,102418.42
2022-11-24T14:33:14.592Z,102421.58
2022-11-24T14:35:30.932Z,102417.38
2022-11-24T14:37:44.663Z,102417.59
2022-11-24T14:39:58.254Z,102416.56
2022-11-24T14:42:19.883Z,102418.68
2022-11-24T14:44:35.624Z,102418.49
2022-11-24T14:46:49.179Z,102412.89
2022-11-24T14:49:02.505Z,102414.87
2022-11-24T14:51:24.236Z,102408.22
2022-11-24T14:53:38.371Z,102403.85
2022-11-24T14:56:09.759Z,102404.08
2022-11-24T14:58:42.015Z,102399.17
2022-11-24T15:01:21.720Z,102401.32
2022-11-24T15:03:35.577Z,102399.59
2022-11-24T15:06:00.557Z,102401.70
2022-11-24T15:08:19.663Z,102400.82
2022-11-24T15:10:38.099Z,102404.70
2022-11-24T15:12:58.266Z,102401.92
2022-11-24T15:15:21.475Z,102401.24
2022-11-24T15:17:35.383Z,102398.66
2022-11-24T15:19:53.522Z,102400.41
2022-11-24T15:22:27.105Z,102397.80
2022-11-24T15:24:52.050Z,102396.91
2022-11-24T15:27:08.362Z,102397.77
2022-11-24T15:29:21.729Z,102400.04
2022-11-24T15:31:35.554Z,102395.85
2022-11-24T15:33:49.041Z,102394.11
2022-11-24T15:36:03.087Z,102390.44
2022-11-24T15:38:16.495Z,102391.32
2022-11-24T15:40:29.792Z,102387.29
2022-11-24T15:42:43.405Z,102389.57
2022-11-24T15:44:56.706Z,102384.63
2022-11-24T15:47:09.972Z,102385.11
2022-11-24T15:49:23.351Z,102385.39
2022-11-24T15:51:37.463Z,102382.13
2022-11-24T15:53:58.716Z,102385.17
2022-11-24T15:56:18.532Z,102384.05
2022-11-24T15:58:32.146Z,102381.39
2022-11-24T16:00:45.674Z,102380.13
2022-11-24T16:03:02.064Z,102374.84
2022-11-24T16:05:26.441Z,102367.61
2022-11-24T16:07:39.706Z,102369.84
2022-11-24T16:09:53.024Z,102369.27
2022-11-24T16:12:06.362Z,102370.29
2022-11-24T16:14:19.704Z,102370.27
2022-11-24T16:16:33.114Z,102370.25
2022-11-24T16:18:46.642Z,102373.23
2022-11-24T16:21:00.014Z,102375.83
2022-11-24T16:23:13.441Z,102369.43
2022-11-24T16:25:26.837Z,102372.73
2022-11-24T16:27:40.343Z,102372.14
2022-11-24T16:29:53.607Z,102371.02
2022-11-24T16:32:07.273Z,102371.06
2022-11-24T16:34:21.265Z,102366.34
2022-11-24T16:36:34.650Z,102363.66
2022-11-24T16:38:48.000Z,102367.15
2022-11-24T16:41:01.789Z,102370.84
2022-11-24T16:43:15.127Z,102370.48
2022-11-24T16:45:28.420Z,102366.59
2022-11-24T16:47:45.431Z,102363.09
2022-11-24T16:49:58.813Z,102362.86
2022-11-24T16:52:12.175Z,102362.30
2022-11-24T16:54:25.701Z,102363.88
2022-11-24T16:56:39.249Z,102361.70
2022-11-24T16:58:52.589Z,102360.91
2022-11-24T17:01:11.595Z,102357.48
2022-11-24T17:03:25.369Z,102356.13
2022-11-24T17:05:38.847Z,102354.11
2022-11-24T17:07:52.613Z,102357.41
2022-11-24T17:10:06.398Z,102360.55
2022-11-24T17:12:19.934Z,102362.33
2022-11-24T17:14:34.081Z,102359.91
2022-11-24T17:16:47.729Z,102349.78
2022-11-24T17:19:01.729Z,102355.48
2022-11-24T17:21:18.675Z,102355.90
2022-11-24T17:23:32.654Z,102360.20
2022-11-24T17:25:46.042Z,102358.12
2022-11-24T17:28:02.363Z,102359.20
2022-11-24T17:30:18.453Z,102358.14
2022-11-24T17:32:31.974Z,102356.02
2022-11-24T17:34:45.456Z,102353.86
2022-11-24T17:36:59.168Z,102348.34
2022-11-24T17:39:13.012Z,102344.56
2022-11-24T17:41:26.585Z,102338.48
2022-11-24T17:43:40.102Z,102338.03
2022-11-24T17:45:59.929Z,102337.21
2022-11-24T17:48:13.812Z,102336.77
2022-11-24T17:50:27.479Z,102337.27
2022-11-24T17:52:41.143Z,102333.33
2022-11-24T17:54:54.751Z,102338.73
2022-11-24T17:57:08.405Z,102340.62
2022-11-24T17:59:22.080Z,102345.88
2022-11-24T18:01:36.126Z,102343.88
2022-11-24T18:03:53.498Z,102342.16
2022-11-24T18:06:14.053Z,102347.58
2022-11-24T18:08:27.675Z,102346.80
2022-11-24T18:10:41.164Z,102343.23
2022-11-24T18:12:54.636Z,102337.86
2022-11-24T18:15:08.224Z,102336.52
2022-11-24T18:17:21.519Z,102325.83
2022-11-24T18:19:34.832Z,102323.80
2022-11-24T18:21:48.284Z,102320.20
2022-11-24T18:24:01.589Z,102318.49
2022-11-24T18:26:18.024Z,102312.16
2022-11-24T18:28:31.453Z,102308.80
2022-11-24T18:30:44.801Z,102306.70
2022-11-24T18:32:58.093Z,102302.11
2022-11-24T18:35:12.355Z,102301.63
2022-11-24T18:37:25.837Z,102301.65
2022-11-24T18:39:43.184Z,102303.10
2022-11-24T18:41:56.714Z,102301.79
2022-11-24T18:44:10.791Z,102300.64
2022-11-24T18:46:24.804Z,102304.77
2022-11-24T18:48:38.352Z,102309.91
2022-11-24T18:50:55.888Z,102307.52
2022-11-24T18:53:09.342Z,102304.70
2022-11-24T18:55:22.893Z,102305.80
2022-11-24T18:57:36.390Z,102304.16
2022-11-24T18:59:49.870Z,102307.05
2022-11-24T19:02:03.492Z,102306.67
2022-11-24T19:04:17.678Z,102306.07
2022-11-24T19:06:34.178Z,102302.42
2022-11-24T19:08:50.220Z,102298.34
2022-11-24T19:11:04.060Z,102294.06
2022-11-24T19:13:19.931Z,102294.74
2022-11-24T19:15:35.318Z,102294.95
2022-11-24T19:17:48.907Z,102285.91
2022-11-24T19:20:02.353Z,102284.23
2022-11-24T19:22:17.302Z,102284.84
2022-11-24T19:24:31.458Z,102291.04
2022-11-24T19:26:45.370Z,102297.11
2022-11-24T19:28:58.773Z,102295.36
2022-11-24T19:31:15.674Z,102295.90
2022-11-24T19:33:29.087Z,102297.61
2022-11-24T19:35:42.596Z,102296.64
2022-11-24T19:37:56.957Z,102300.33
2022-11-24T19:40:11.475Z,102292.03
2022-11-24T19:42:24.921Z,102287.83
2022-11-24T19:44:38.368Z,102290.92
2022-11-24T19:46:51.794Z,102290.18
2022-11-24T19:49:06.116Z,102301.91
2022-11-24T19:51:21.068Z,102303.87
2022-11-24T19:53:34.969Z,102304.29
2022-11-24T19:55:48.243Z,102298.60
2022-11-24T19:58:01.847Z,102294.41
2022-11-24T20:00:18.523Z,102292.31
2022-11-24T20:02:32.849Z,102293.23
2022-11-24T20:04:46.363Z,102290.35
2022-11-24T20:06:59.952Z,102287.13
2022-11-24T20:09:15.344Z,102283.11
2022-11-24T20:11:28.958Z,102283.65
2022-11-24T20:13:43.579Z,102281.95
2022-11-24T20:15:56.992Z,102281.77
2022-11-24T20:18:10.589Z,102278.56
2022-11-24T20:20:23.980Z,102277.95
2022-11-24T20:22:37.425Z,102275.51
2022-11-24T20:24:50.872Z,102274.22
2022-11-24T20:27:04.739Z,102266.73
2022-11-24T20:29:19.193Z,102266.77
2022-11-24T20:31:34.825Z,102259.93
2022-11-24T20:33:49.273Z,102258.44
2022-11-24T20:36:07.316Z,102259.73
2022-11-24T20:38:20.636Z,102253.86
2022-11-24T20:40:34.235Z,102252.09
2022-11-24T20:42:47.601Z,102253.53
2022-11-24T20:45:02.134Z,102260.80
2022-11-24T20:47:15.636Z,102259.48
2022-11-24T20:49:29.688Z,102257.41
2022-11-24T20:51:45.348Z,102258.95
2022-11-24T20:54:01.398Z,102254.48
2022-11-24T20:56:18.145Z,102253.54
2022-11-24T20:58:31.623Z,102244.89
2022-11-24T21:00:45.282Z,102239.66
2022-11-24T21:02:59.702Z,102236.94
2022-11-24T21:05:13.783Z,102232.21
2022-11-24T21:07:27.191Z,102232.50
2022-11-24T21:09:40.822Z,102237.41
2022-11-24T21:11:54.464Z,102237.57
2022-11-24T21:14:08.357Z,102236.89
2022-11-24T21:16:23.706Z,102232.64
2022-11-24T21:18:37.054Z,102229.16
2022-11-24T21:20:50.531Z,102228.16
2022-11-24T21:23:04.932Z,102227.16
2022-11-24T21:25:18.488Z,102229.11
2022-11-24T21:27:31.952Z,102231.52
2022-11-24T21:29:45.766Z,102235.97
2022-11-24T21:31:59.293Z,102234.29
2022-11-24T21:34:17.085Z,102231.45
2022-11-24T21:36:31.078Z,102232.47
2022-11-24T21:38:45.262Z,102236.94
2022-11-24T21:41:02.076Z,102240.98
2022-11-24T21:43:15.340Z,102231.89
2022-11-24T21:45:30.423Z,102227.53
2022-11-24T21:47:43.833Z,102219.73
2022-11-24T21:49:57.021Z,102214.98
2022-11-24T21:52:10.488Z,102212.02
2022-11-24T21:54:23.805Z,102209.25
2022-11-24T21:56:37.160Z,102210.00
2022-11-24T21:58:54.330Z,102205.38
2022-11-24T22:01:11.930Z,102202.23
2022-11-24T22:03:26.500Z,102198.05
2022-11-24T22:05:39.895Z,102196.10
2022-11-24T22:07:53.379Z,102196.62
2022-11-24T22:10:06.975Z,102192.69
2022-11-24T22:12:20.346Z,102194.02
2022-11-24T22:14:37.550Z,102198.85
2022-11-24T22:16:53.487Z,102200.86
2022-11-24T22:19:06.821Z,102196.01
2022-11-24T22:21:21.123Z,102193.88
2022-11-24T22:23:34.957Z,102194.29
2022-11-24T22:25:48.277Z,102192.55
2022-11-24T22:28:01.554Z,102187.67
2022-11-24T22:30:16.296Z,102187.34
2022-11-24T22:32:29.510Z,102187.44
2022-11-24T22:34:42.821Z,102192.66
2022-11-24T22:36:56.155Z,102199.17
2022-11-24T22:39:10.128Z,102199.20
2022-11-24T22:41:23.812Z,102192.17
2022-11-24T22:43:39.412Z,102186.48
2022-11-24T22:45:52.651Z,102173.84
2022-11-24T22:48:05.883Z,102166.42
2022-11-24T22:50:21.321Z,102160.46
2022-11-24T22:52:34.963Z,102158.64
2022-11-24T22:54:48.206Z,102153.11
2022-11-24T22:57:01.727Z,102147.13
2022-11-24T22:59:14.962Z,102143.42
2022-11-24T23:01:29.196Z,102141.17
2022-11-24T23:03:43.169Z,102135.40
2022-11-24T23:05:56.583Z,102133.23
2022-11-24T23:08:10.173Z,102127.54
2022-11-24T23:10:23.548Z,102124.21
2022-11-24T23:12:36.969Z,102119.86
2022-11-24T23:14:50.254Z,102117.38
2022-11-24T23:17:03.663Z,102117.86
2022-11-24T23:19:17.193Z,102110.70
2022-11-24T23:21:32.375Z,102109.20
2022-11-24T23:23:45.684Z,102111.90
2022-11-24T23:25:58.862Z,102110.80
2022-11-24T23:28:12.342Z,102109.77
2022-11-24T23:30:25.785Z,102112.52
2022-11-24T23:32:39.101Z,102117.63
2022-11-24T23:34:52.578Z,102124.30
2022-11-24T23:37:10.511Z,102126.73
2022-11-24T23:39:24.060Z,102135.03
2022-11-24T23:41:40.662Z,102135.41
2022-11-24T23:43:54.371Z,102129.96
2022-11-24T23:46:12.984Z,102127.91
2022-11-24T23:48:26.519Z,102125.61
2022-11-24T23:50:41.311Z,102122.70
2022-11-24T23:52:54.774Z,102118.38
2022-11-24T23:55:08.680Z,102118.44
2022-11-24T23:57:22.314Z,102115.00
2022-11-24T23:59:35.704Z,102116.16
